Time;durP1;ratioP1;P1;durP2;ratioP2;P2;SDS_P1;SDS_P2;PMS_P1;PMS_P2;Temp;Humidity;BMP_temperature;BMP_pressure;BME280_temperature;BME280_humidity;BME280_pressure;Samples;Min_cycle;Max_cycle;Signal;HPM_P1;HPM_P2
2023/06/15 00:01:47;;;;;;;;;25.00;25.00;;;;;22.94;37.14;101232.78;6285120;22;44740;-96
2023/06/15 00:04:12;;;;;;;;;24.75;23.75;;;;;23.03;37.15;101257.72;6312888;22;45265;-96
2023/06/15 00:06:38;;;;;;;;;25.25;24.50;;;;;23.02;36.80;101267.50;6286384;22;46679;-95
2023/06/15 00:09:03;;;;;;;;;24.25;23.75;;;;;22.85;37.22;101239.69;6287259;22;44649;-96
2023/06/15 00:11:29;;;;;;;;;23.50;23.50;;;;;22.95;37.29;101261.00;6314777;22;44701;-95
2023/06/15 00:13:55;;;;;;;;;23.50;22.75;;;;;22.93;37.03;101260.28;6285578;22;44968;-96
2023/06/15 00:16:20;;;;;;;;;24.50;24.50;;;;;22.83;37.64;101261.03;6283246;22;47748;-96
2023/06/15 00:18:54;;;;;;;;;26.25;26.00;;;;;22.87;37.63;101274.06;6285409;22;44632;-95
2023/06/15 00:21:22;;;;;;;;;23.00;21.75;;;;;22.66;37.39;101245.63;6284499;22;44676;-96
2023/06/15 00:23:48;;;;;;;;;22.50;22.50;;;;;22.86;37.38;101291.75;6284110;22;44753;-96
2023/06/15 00:26:13;;;;;;;;;24.00;24.00;;;;;22.61;37.42;101255.75;6282852;22;47060;-96
2023/06/15 00:28:38;;;;;;;;;24.75;23.25;;;;;22.69;37.57;101278.03;6283464;22;44829;-96
2023/06/15 00:31:04;;;;;;;;;20.50;20.50;;;;;22.54;37.67;101250.94;6285112;22;45033;-96
2023/06/15 00:33:29;;;;;;;;;21.75;21.75;;;;;22.53;37.57;101261.66;6285355;22;44754;-96
2023/06/15 00:35:55;;;;;;;;;24.25;24.25;;;;;22.53;38.36;101265.16;6283554;22;46374;-96
2023/06/15 00:38:20;;;;;;;;;26.25;25.00;;;;;22.55;38.06;101275.66;6283508;22;44734;-96
2023/06/15 00:40:45;;;;;;;;;25.75;22.75;;;;;22.38;38.20;101261.03;6285373;22;44958;-95
2023/06/15 00:43:11;;;;;;;;;23.00;22.25;;;;;22.38;38.34;101274.28;6313305;22;45378;-95
2023/06/15 00:45:36;;;;;;;;;24.00;22.75;;;;;22.53;38.78;101298.78;6285530;22;46809;-95
2023/06/15 00:48:02;;;;;;;;;25.00;23.50;;;;;22.27;38.40;101265.34;6285658;22;44677;-95
2023/06/15 00:50:30;;;;;;;;;22.75;22.75;;;;;22.36;38.49;101281.50;6287211;22;44595;-96
2023/06/15 00:53:03;;;;;;;;;20.25;20.25;;;;;22.20;38.51;101261.50;6285425;22;44871;-95
2023/06/15 00:55:31;;;;;;;;;21.00;18.75;;;;;22.29;38.09;101287.31;6287092;22;45563;-95
2023/06/15 00:57:56;;;;;;;;;22.00;20.75;;;;;22.28;38.72;101290.06;6285418;22;44674;-96
2023/06/15 01:00:22;;;;;;;;;24.25;22.25;;;;;22.11;38.06;101263.06;6286468;22;44670;-96
2023/06/15 01:02:56;;;;;;;;;20.50;19.25;;;;;22.20;38.57;101285.34;6286127;22;44796;-96
2023/06/15 01:05:23;;;;;;;;;23.00;20.75;;;;;22.16;38.95;101289.19;6285962;22;46825;-96
2023/06/15 01:07:51;;;;;;;;;20.50;19.75;;;;;22.18;38.77;101292.59;6285082;22;44710;-96
2023/06/15 01:10:19;;;;;;;;;25.25;22.75;;;;;21.99;39.02;101269.31;6285016;22;44778;-96
2023/06/15 01:12:45;;;;;;;;;18.00;18.00;;;;;22.06;39.11;101286.41;6286628;22;44882;-96
2023/06/15 01:15:12;;;;;;;;;24.50;22.50;;;;;22.11;38.93;101305.44;6285188;22;45833;-96
2023/06/15 01:17:46;;;;;;;;;23.50;20.50;;;;;22.01;39.21;101294.72;6311607;22;45440;-96
2023/06/15 01:20:21;;;;;;;;;22.75;21.00;;;;;21.93;38.93;101286.50;6285758;22;44732;-96
2023/06/15 01:23:10;;;;;;;;;29.00;26.00;;;;;22.01;39.09;101307.97;6284662;22;44789;-96
2023/06/15 01:25:45;;;;;;;;;20.75;20.75;;;;;21.96;39.01;101302.16;6287207;22;48407;-95
2023/06/15 01:28:15;;;;;;;;;21.75;21.75;;;;;21.92;39.19;101302.50;6283294;22;44729;-96
2023/06/15 01:30:42;;;;;;;;;22.00;20.75;;;;;21.91;39.70;101308.75;6311169;22;44710;-96
2023/06/15 01:33:08;;;;;;;;;21.50;20.50;;;;;21.75;39.04;101286.94;6313373;22;45143;-96
2023/06/15 01:35:34;;;;;;;;;22.00;20.00;;;;;21.76;39.52;101293.91;6285903;22;46776;-96
2023/06/15 01:38:00;;;;;;;;;28.00;19.75;;;;;21.58;39.54;101274.06;6313862;22;44669;-96
2023/06/15 01:40:27;;;;;;;;;23.25;22.00;;;;;21.56;39.64;101262.75;6287865;22;44772;-96
2023/06/15 01:42:53;;;;;;;;;22.50;22.00;;;;;21.53;40.03;101268.28;6288015;22;44744;-96
2023/06/15 01:45:21;;;;;;;;;21.00;21.00;;;;;21.56;40.12;101279.47;6286799;22;45903;-96
2023/06/15 01:47:48;;;;;;;;;20.25;19.00;;;;;21.42;39.90;101261.16;6288691;22;44782;-96
2023/06/15 01:50:15;;;;;;;;;22.75;22.50;;;;;21.48;40.24;101279.22;6286960;22;44724;-95
2023/06/15 01:52:40;;;;;;;;;22.00;20.50;;;;;21.58;40.30;101304.03;6282723;22;44967;-96
2023/06/15 01:55:07;;;;;;;;;19.75;19.75;;;;;21.34;40.13;101270.47;6307772;22;45328;-96
2023/06/15 01:57:37;;;;;;;;;23.00;20.00;;;;;21.36;40.36;101278.31;6283228;22;44772;-96
2023/06/15 02:00:04;;;;;;;;;21.75;20.75;;;;;21.29;40.27;101275.25;6282981;22;44759;-96
2023/06/15 02:02:31;;;;;;;;;23.50;22.75;;;;;21.32;40.27;101279.47;6282899;22;44847;-96
2023/06/15 02:04:56;;;;;;;;;20.00;18.50;;;;;21.38;40.69;101294.91;6279594;22;45788;-96
2023/06/15 02:07:22;;;;;;;;;19.75;18.75;;;;;21.22;40.64;101268.72;6281454;22;44725;-96
2023/06/15 02:09:47;;;;;;;;;23.00;21.50;;;;;21.30;40.77;101292.81;6281966;22;44759;-96
2023/06/15 02:12:12;;;;;;;;;21.00;19.00;;;;;21.35;40.74;101303.09;6281510;22;44686;-96
2023/06/15 02:14:38;;;;;;;;;20.75;19.00;;;;;21.35;41.12;101303.91;6282207;22;45610;-96
2023/06/15 02:17:05;;;;;;;;;20.00;20.00;;;;;21.09;41.10;101272.28;6282072;22;45191;-95
2023/06/15 02:19:30;;;;;;;;;22.25;20.00;;;;;21.07;41.15;101265.41;6282998;22;44800;-96
2023/06/15 02:21:55;;;;;;;;;21.50;20.75;;;;;21.16;41.26;101288.53;6282709;22;44961;-96
2023/06/15 02:24:21;;;;;;;;;23.25;22.50;;;;;21.14;41.43;101297.53;6282414;22;45875;-96
2023/06/15 02:26:47;;;;;;;;;21.00;19.50;;;;;21.10;41.35;101291.63;6282196;22;44717;-96
2023/06/15 02:29:12;;;;;;;;;21.75;21.00;;;;;20.95;41.56;101285.66;6282591;22;44650;-96
2023/06/15 02:31:38;;;;;;;;;20.25;19.75;;;;;20.93;41.84;101274.34;6282774;22;45289;-96
2023/06/15 02:34:04;;;;;;;;;22.25;20.50;;;;;20.89;41.67;101276.38;6281891;22;45597;-96
2023/06/15 02:36:30;;;;;;;;;23.00;21.75;;;;;20.95;41.62;101297.09;6282125;22;45286;-96
2023/06/15 02:38:56;;;;;;;;;22.25;20.50;;;;;20.94;41.52;101300.69;6282071;22;44750;-96
2023/06/15 02:41:21;;;;;;;;;22.25;22.25;;;;;20.83;41.76;101277.59;6281691;22;45374;-96
2023/06/15 02:43:47;;;;;;;;;21.75;20.00;;;;;20.85;42.07;101284.56;6281699;22;46879;-94
2023/06/15 02:46:12;;;;;;;;;21.50;20.00;;;;;20.70;41.48;101272.34;6280798;22;44886;-96
2023/06/15 02:48:37;;;;;;;;;22.25;20.50;;;;;20.67;42.00;101267.28;6281625;22;45097;-96
2023/06/15 02:51:03;;;;;;;;;19.75;19.75;;;;;20.77;42.04;101288.63;6281518;22;44953;-96
2023/06/15 02:53:28;;;;;;;;;20.75;19.75;;;;;20.76;42.05;101297.50;6281102;22;45390;-96
2023/06/15 02:55:54;;;;;;;;;19.00;19.00;;;;;20.57;41.78;101268.88;6309254;22;44958;-96
2023/06/15 02:58:20;;;;;;;;;19.00;18.25;;;;;20.60;42.28;101278.38;6282158;22;44694;-96
2023/06/15 03:00:50;;;;;;;;;19.50;19.50;;;;;20.62;41.98;101290.56;6282019;22;44899;-96
2023/06/15 03:03:27;;;;;;;;;20.50;19.75;;;;;20.49;42.22;101271.19;6285233;22;45602;-96
2023/06/15 03:05:54;;;;;;;;;24.75;22.00;;;;;20.53;42.41;101280.59;6280203;22;44723;-95
2023/06/15 03:08:20;;;;;;;;;20.75;19.75;;;;;20.42;42.58;101271.63;6281331;22;44713;-96
2023/06/15 03:10:45;;;;;;;;;19.75;19.75;;;;;20.50;42.76;101288.78;6281186;22;45450;-95
2023/06/15 03:13:11;;;;;;;;;20.00;18.25;;;;;20.48;42.74;101291.50;6280572;22;46840;-96
2023/06/15 03:15:37;;;;;;;;;21.75;20.75;;;;;20.53;42.80;101301.75;6280621;22;45215;-96
2023/06/15 03:18:04;;;;;;;;;18.75;17.00;;;;;20.45;42.74;101304.94;6280876;22;44725;-95
2023/06/15 03:20:32;;;;;;;;;22.00;20.00;;;;;20.30;42.71;101277.75;6281975;22;44982;-95
2023/06/15 03:22:58;;;;;;;;;22.50;21.50;;;;;20.26;42.74;101271.00;6286065;22;45964;-95
2023/06/15 03:25:23;;;;;;;;;20.75;20.75;;;;;20.32;42.80;101289.06;6288527;22;45274;-96
2023/06/15 03:27:52;;;;;;;;;18.50;18.25;;;;;20.37;42.93;101309.91;6292007;22;45165;-96
2023/06/15 03:30:18;;;;;;;;;18.75;17.25;;;;;20.20;43.16;101282.00;6288632;22;45282;-95
2023/06/15 03:32:46;;;;;;;;;19.25;18.25;;;;;20.18;43.07;101286.53;6283209;22;45448;-95
2023/06/15 03:35:12;;;;;;;;;17.75;17.50;;;;;20.15;43.33;101287.59;6283310;22;44850;-96
2023/06/15 03:37:37;;;;;;;;;26.00;22.00;;;;;20.09;43.41;101280.91;6281969;22;44706;-96
2023/06/15 03:40:05;;;;;;;;;19.00;17.50;;;;;20.21;43.38;101313.59;6283084;22;44876;-96
2023/06/15 03:42:30;;;;;;;;;17.75;17.25;;;;;20.02;43.16;101287.56;6309171;22;47304;-96
2023/06/15 03:44:56;;;;;;;;;19.25;19.25;;;;;19.99;43.39;101285.97;6282870;22;45182;-96
2023/06/15 03:47:21;;;;;;;;;19.00;18.50;;;;;19.93;43.51;101282.88;6282586;22;44889;-96
2023/06/15 03:49:47;;;;;;;;;17.50;17.50;;;;;19.95;43.46;101286.28;6283578;22;44853;-96
2023/06/15 03:52:12;;;;;;;;;20.50;19.25;;;;;19.94;43.31;101289.88;6282498;22;47107;-95
2023/06/15 03:54:37;;;;;;;;;22.00;18.50;;;;;20.06;43.60;101318.13;6283824;22;45810;-96
2023/06/15 03:57:03;;;;;;;;;18.00;17.00;;;;;19.97;43.43;101302.88;6282684;22;44849;-95
2023/06/15 03:59:28;;;;;;;;;20.00;19.50;;;;;19.88;43.82;101297.25;6283485;22;44800;-96
2023/06/15 04:01:54;;;;;;;;;18.75;17.00;;;;;19.80;43.46;101290.78;6283177;22;46759;-96
2023/06/15 04:04:20;;;;;;;;;17.00;17.00;;;;;19.78;43.85;101293.53;6282695;22;44745;-96
2023/06/15 04:06:46;;;;;;;;;22.25;17.75;;;;;19.76;43.74;101287.47;6284038;22;44865;-96
2023/06/15 04:09:13;;;;;;;;;20.75;18.75;;;;;19.73;44.01;101290.34;6284640;22;44873;-96
2023/06/15 04:11:40;;;;;;;;;19.50;19.50;;;;;19.87;43.86;101321.13;6283450;22;47408;-96
2023/06/15 04:14:05;;;;;;;;;18.50;17.00;;;;;19.85;44.08;101321.22;6284166;22;44822;-96
2023/06/15 04:16:31;;;;;;;;;20.75;19.75;;;;;19.68;44.50;101300.38;6283134;22;45107;-96
2023/06/15 04:18:57;;;;;;;;;19.25;19.00;;;;;19.74;44.02;101316.66;6283773;22;44952;-96
2023/06/15 04:21:22;;;;;;;;;21.75;21.75;;;;;19.65;44.22;101301.41;6281881;22;47630;-96
2023/06/15 04:23:48;;;;;;;;;12.25;11.00;;;;;19.63;44.29;101308.59;6283173;22;44641;-96
2023/06/15 04:26:13;;;;;;;;;19.50;18.75;;;;;19.62;44.67;101305.09;6282697;22;44743;-96
2023/06/15 04:28:39;;;;;;;;;17.50;17.25;;;;;19.77;44.52;101328.81;6282596;22;45262;-96
2023/06/15 04:31:10;;;;;;;;;22.00;20.25;;;;;19.63;44.51;101314.69;6282327;22;46987;-96
2023/06/15 04:33:36;;;;;;;;;20.00;18.00;;;;;19.61;44.64;101311.31;6282843;22;44722;-96
2023/06/15 04:36:03;;;;;;;;;20.00;18.50;;;;;19.60;44.64;101314.91;6281927;22;44765;-96
2023/06/15 04:38:28;;;;;;;;;18.50;17.50;;;;;19.69;44.77;101323.16;6281045;22;44853;-96
2023/06/15 04:40:54;;;;;;;;;19.25;18.50;;;;;19.61;44.77;101313.97;6279912;22;47199;-96
2023/06/15 04:43:20;;;;;;;;;18.00;17.75;;;;;19.65;44.68;101321.66;6288159;22;44722;-96
2023/06/15 04:45:45;;;;;;;;;20.25;18.75;;;;;19.66;44.69;101326.84;6280750;22;44709;-95
2023/06/15 04:48:11;;;;;;;;;18.25;18.00;;;;;19.67;44.83;101325.91;6282485;22;44796;-96
2023/06/15 04:50:38;;;;;;;;;11.00;9.25;;;;;19.83;45.11;101352.16;6281026;22;46937;-96
2023/06/15 04:53:06;;;;;;;;;16.50;16.50;;;;;19.73;45.10;101333.41;6283167;22;44745;-95
2023/06/15 04:55:31;;;;;;;;;19.25;18.50;;;;;19.90;45.36;101353.44;6280333;22;45248;-96
2023/06/15 04:57:57;;;;;;;;;19.25;17.75;;;;;19.94;45.52;101361.19;6278549;22;44808;-96
2023/06/15 05:00:22;;;;;;;;;20.00;20.00;;;;;19.87;45.45;101343.06;6278828;22;47174;-95
2023/06/15 05:02:48;;;;;;;;;18.50;17.75;;;;;20.00;45.06;101369.56;6279618;22;45560;-95
2023/06/15 05:05:13;;;;;;;;;16.75;16.75;;;;;20.09;45.53;101376.03;6278668;22;45452;-96
2023/06/15 05:07:38;;;;;;;;;23.25;19.75;;;;;20.00;45.31;101342.31;6279534;22;45305;-96
2023/06/15 05:10:05;;;;;;;;;19.00;16.50;;;;;20.11;45.12;101358.28;6279208;22;46954;-96
2023/06/15 05:12:31;;;;;;;;;15.75;14.75;;;;;20.24;45.71;101375.97;6279278;22;45625;-95
2023/06/15 05:14:56;;;;;;;;;19.25;18.25;;;;;20.28;45.74;101375.63;6280243;22;44686;-96
2023/06/15 05:17:22;;;;;;;;;17.25;17.25;;;;;20.16;45.90;101350.91;6280574;22;45313;-94
2023/06/15 05:19:48;;;;;;;;;17.75;16.50;;;;;20.23;45.69;101356.59;6279867;22;47069;-95
2023/06/15 05:22:13;;;;;;;;;16.75;16.25;;;;;20.27;45.43;101363.38;6279995;22;45239;-96
2023/06/15 05:24:39;;;;;;;;;19.25;18.75;;;;;20.38;45.47;101361.81;6280733;22;45275;-95
2023/06/15 05:27:04;;;;;;;;;19.75;19.75;;;;;20.40;45.31;101365.19;6280812;22;45280;-96
2023/06/15 05:29:30;;;;;;;;;22.00;21.25;;;;;20.36;45.40;101348.69;6280400;22;47259;-94
2023/06/15 05:31:56;;;;;;;;;22.25;20.75;;;;;20.44;45.63;101356.09;6279823;22;45187;-95
2023/06/15 05:34:21;;;;;;;;;22.75;21.25;;;;;20.43;45.62;101354.41;6280018;22;45267;-96
2023/06/15 05:36:47;;;;;;;;;22.50;21.00;;;;;20.53;45.49;101366.06;6280926;22;45256;-95
2023/06/15 05:39:12;;;;;;;;;19.25;16.75;;;;;20.67;45.16;101374.84;6280521;22;48119;-96
2023/06/15 05:41:38;;;;;;;;;22.50;19.75;;;;;20.71;45.56;101376.31;6280745;22;45633;-95
2023/06/15 05:44:04;;;;;;;;;25.00;23.75;;;;;20.82;45.09;101389.66;6280413;22;44761;-96
2023/06/15 05:46:29;;;;;;;;;18.75;17.50;;;;;20.85;45.23;101390.38;6279906;22;45296;-96
2023/06/15 05:48:54;;;;;;;;;16.50;15.25;;;;;20.85;45.10;101377.16;6279828;22;46441;-96
2023/06/15 05:51:20;;;;;;;;;14.75;14.75;;;;;20.92;44.38;101386.41;6281057;22;44885;-96
2023/06/15 05:53:45;;;;;;;;;16.50;14.50;;;;;20.89;44.36;101373.38;6280697;22;45286;-95
2023/06/15 05:56:11;;;;;;;;;14.25;13.50;;;;;20.96;43.75;101383.41;6280669;22;44776;-95
2023/06/15 05:58:40;;;;;;;;;14.50;14.00;;;;;20.96;44.10;101378.13;6279986;22;46953;-96
2023/06/15 06:01:05;;;;;;;;;13.33;13.33;;;;;21.09;43.83;101387.84;6281658;22;45254;-96
2023/06/15 06:03:31;;;;;;;;;12.00;12.00;;;;;20.99;43.51;101369.13;6282107;22;44687;-96
2023/06/15 06:05:56;;;;;;;;;14.00;14.00;;;;;21.00;43.05;101365.53;6281545;22;44885;-96
2023/06/15 06:08:23;;;;;;;;;13.50;13.25;;;;;21.20;42.95;101398.50;6281692;22;48413;-96
2023/06/15 06:10:49;;;;;;;;;17.00;16.00;;;;;21.09;43.17;101359.59;6281535;22;45511;-96
2023/06/15 06:13:15;;;;;;;;;16.50;13.75;;;;;21.26;42.88;101377.84;6286418;22;44630;-96
2023/06/15 06:15:42;;;;;;;;;12.75;12.75;;;;;21.33;43.29;101373.81;6320243;22;44851;-96
2023/06/15 06:18:07;;;;;;;;;11.50;11.00;;;;;21.31;43.00;101368.66;6294214;22;46853;-96
2023/06/15 06:20:33;;;;;;;;;18.25;17.00;;;;;21.37;42.79;101372.63;6287871;22;45914;-96
2023/06/15 06:22:58;;;;;;;;;18.25;17.00;;;;;21.39;42.88;101360.16;6290052;22;45156;-96
2023/06/15 06:25:24;;;;;;;;;16.75;16.75;;;;;21.43;43.13;101366.91;6309053;22;45213;-96
2023/06/15 06:27:49;;;;;;;;;16.25;15.75;;;;;21.51;42.75;101370.81;6294920;22;47313;-96
2023/06/15 06:30:15;;;;;;;;;16.50;14.25;;;;;21.59;42.69;101385.19;6281531;22;45243;-96
2023/06/15 06:32:40;;;;;;;;;18.00;17.75;;;;;21.70;42.58;101399.44;6289374;22;44915;-96
2023/06/15 06:35:06;;;;;;;;;15.25;13.75;;;;;21.74;42.52;101399.13;6286803;22;45243;-96
2023/06/15 06:37:31;;;;;;;;;19.75;18.25;;;;;21.71;42.57;101382.63;6280364;22;47405;-96
2023/06/15 06:39:57;;;;;;;;;16.00;15.75;;;;;21.76;42.42;101391.09;6280966;22;45217;-96
2023/06/15 06:42:22;;;;;;;;;20.25;20.25;;;;;21.79;42.17;101382.88;6283588;22;44986;-96
2023/06/15 06:44:48;;;;;;;;;16.25;16.25;;;;;21.85;42.59;101392.22;6281021;22;45342;-96
2023/06/15 06:47:13;;;;;;;;;17.75;16.00;;;;;21.89;42.53;101391.84;6281324;22;47353;-96
2023/06/15 06:49:38;;;;;;;;;16.25;14.75;;;;;21.98;42.41;101398.28;6282704;22;45195;-96
2023/06/15 06:52:05;;;;;;;;;14.75;13.50;;;;;22.00;42.50;101395.53;6282353;22;45417;-96
2023/06/15 06:54:30;;;;;;;;;18.00;16.25;;;;;22.05;41.63;101397.81;6280316;22;45437;-96
2023/06/15 06:56:56;;;;;;;;;17.00;15.75;;;;;22.10;41.99;101401.81;6282099;22;47045;-96
2023/06/15 06:59:21;;;;;;;;;18.00;18.00;;;;;22.19;41.68;101408.25;6281583;22;45269;-96
2023/06/15 07:01:50;;;;;;;;;16.50;16.25;;;;;22.22;41.80;101405.34;6282294;22;45275;-96
2023/06/15 07:04:15;;;;;;;;;20.75;18.50;;;;;22.37;41.16;101421.91;6283602;22;45279;-96
2023/06/15 07:06:41;;;;;;;;;17.75;16.25;;;;;22.31;41.34;101409.09;6278141;22;46942;-96
2023/06/15 07:09:06;;;;;;;;;18.50;16.75;;;;;22.50;41.12;101428.94;6306971;22;44830;-96
2023/06/15 07:11:32;;;;;;;;;17.25;16.50;;;;;22.55;41.54;101432.13;6281038;22;45175;-96
2023/06/15 07:13:58;;;;;;;;;15.50;13.75;;;;;22.46;41.54;101403.59;6282697;22;45115;-96
2023/06/15 07:16:23;;;;;;;;;15.75;14.00;;;;;22.65;41.03;101426.94;6283785;22;47180;-96
2023/06/15 07:18:48;;;;;;;;;15.25;15.25;;;;;22.63;41.07;101416.44;6280832;22;44763;-96
2023/06/15 07:21:14;;;;;;;;;13.00;12.00;;;;;22.60;40.76;101407.88;6279152;22;45250;-96
2023/06/15 07:23:40;;;;;;;;;11.50;11.00;;;;;22.72;40.86;101417.53;6281072;22;45227;-96
2023/06/15 07:26:05;;;;;;;;;11.75;11.25;;;;;22.74;40.50;101415.63;6286807;22;47101;-96
2023/06/15 07:28:31;;;;;;;;;14.50;13.25;;;;;22.80;40.58;101412.50;6281559;22;44698;-96
2023/06/15 07:30:57;;;;;;;;;13.25;11.00;;;;;22.93;40.79;101422.16;6280833;22;45097;-96
2023/06/15 07:33:22;;;;;;;;;10.50;10.50;;;;;23.00;39.67;101431.31;6283938;22;45204;-96
2023/06/15 07:35:49;;;;;;;;;10.67;10.00;;;;;22.95;39.69;101412.25;6282307;22;46448;-96
2023/06/15 07:38:14;;;;;;;;;11.25;10.75;;;;;23.04;39.85;101419.50;6281734;22;45194;-96
2023/06/15 07:40:40;;;;;;;;;13.00;11.33;;;;;23.11;39.29;101422.53;6280314;22;45172;-96
2023/06/15 07:43:06;;;;;;;;;11.00;11.00;;;;;23.18;39.37;101420.22;6273513;22;45677;-96
2023/06/15 07:45:31;;;;;;;;;10.33;8.33;;;;;23.25;39.72;101417.91;6278077;22;47104;-95
2023/06/15 07:47:56;;;;;;;;;10.33;9.67;;;;;23.38;39.21;101426.66;6277558;22;45399;-96
2023/06/15 07:50:22;;;;;;;;;9.33;9.33;;;;;23.53;39.31;101442.31;6279009;22;45346;-96
2023/06/15 07:52:51;;;;;;;;;11.33;10.33;;;;;23.59;39.00;101441.81;6278734;22;45358;-96
2023/06/15 07:55:16;;;;;;;;;7.33;7.00;;;;;23.63;39.05;101432.63;6277171;22;48412;-96
2023/06/15 07:57:41;;;;;;;;;9.67;9.00;;;;;23.78;38.93;101459.75;6277130;22;44914;-96
2023/06/15 08:00:08;;;;;;;;;10.50;10.25;;;;;23.82;38.69;101449.72;6277612;22;45165;-96
2023/06/15 08:02:33;;;;;;;;;12.33;11.00;;;;;23.87;38.94;101444.88;6278405;22;45419;-96
2023/06/15 08:05:00;;;;;;;;;9.00;7.50;;;;;23.91;38.29;101438.34;6278243;22;47361;-96
2023/06/15 08:07:25;;;;;;;;;11.25;9.00;;;;;24.01;38.50;101443.72;6277527;22;45369;-96
2023/06/15 08:09:50;;;;;;;;;7.75;6.25;;;;;23.94;38.00;101422.16;6277004;22;45303;-96
2023/06/15 08:12:17;;;;;;;;;10.00;9.75;;;;;24.00;37.37;101420.78;6278250;22;45245;-96
2023/06/15 08:14:42;;;;;;;;;10.25;9.00;;;;;24.21;37.56;101455.41;6279300;22;47184;-96
2023/06/15 08:17:07;;;;;;;;;11.00;10.00;;;;;24.25;38.25;101450.69;6279357;22;45709;-96
2023/06/15 08:19:33;;;;;;;;;7.75;5.50;;;;;24.25;37.87;101434.75;6276930;22;45274;-96
2023/06/15 08:24:33;;;;;;;;;9.00;9.00;;;;;24.56;37.42;101450.75;6332235;22;45297;-95
2023/06/15 08:27:00;;;;;;;;;9.50;9.00;;;;;24.70;37.56;101460.22;6309611;22;44698;-96
2023/06/15 08:29:26;;;;;;;;;10.50;9.00;;;;;24.55;37.31;101423.34;6315006;22;45272;-96
2023/06/15 08:31:51;;;;;;;;;8.75;8.25;;;;;24.88;37.27;101457.84;6318223;22;44923;-96
2023/06/15 08:34:18;;;;;;;;;9.00;9.00;;;;;24.95;37.12;101453.69;6347504;22;45443;-96
2023/06/15 08:36:43;;;;;;;;;13.67;11.00;;;;;24.90;36.79;101441.75;6346780;22;44745;-96
2023/06/15 08:39:09;;;;;;;;;9.67;9.67;;;;;25.00;36.79;101442.66;6345490;22;44731;-96
2023/06/15 08:41:37;;;;;;;;;8.67;8.00;;;;;25.01;37.02;101422.19;6330110;22;44923;-96
2023/06/15 08:44:05;;;;;;;;;11.00;9.67;;;;;25.21;36.88;101450.56;6329571;22;45841;-96
2023/06/15 08:46:31;;;;;;;;;12.33;11.00;;;;;25.24;36.60;101443.28;6359503;22;44694;-96
2023/06/15 08:48:58;;;;;;;;;11.67;10.67;;;;;25.34;36.65;101446.81;6357995;22;44707;-96
2023/06/15 08:51:24;;;;;;;;;12.75;10.75;;;;;25.37;36.63;101435.06;6335242;22;44805;-96
2023/06/15 11:42:25;;;;;;;;;14.33;12.67;;;;;33.32;24.72;101420.09;6308351;22;46444;-90
2023/06/15 11:44:50;;;;;;;;;12.33;11.00;;;;;33.38;24.45;101419.34;6309854;22;45610;-92
2023/06/15 11:47:16;;;;;;;;;12.00;11.67;;;;;33.54;23.98;101431.75;6310575;22;46679;-91
2023/06/15 11:49:44;;;;;;;;;12.25;12.00;;;;;33.62;24.03;101429.94;6337541;22;45312;-92
2023/06/15 11:52:11;;;;;;;;;13.00;11.33;;;;;33.63;24.62;101410.88;6310825;22;45261;-92
2023/06/15 11:54:37;;;;;;;;;12.00;12.00;;;;;33.65;23.42;101413.41;6337453;22;45371;-92
2023/06/15 11:57:03;;;;;;;;;12.50;11.50;;;;;33.68;23.54;101421.94;6336448;22;46967;-92
2023/06/15 11:59:28;;;;;;;;;13.00;13.00;;;;;33.75;23.28;101422.00;6336535;22;45335;-91
2023/06/15 12:01:58;;;;;;;;;11.75;11.75;;;;;33.81;23.53;101421.22;6336754;22;45383;-90
2023/06/15 12:04:31;;;;;;;;;15.00;14.00;;;;;33.83;23.12;101408.34;6337349;22;45241;-91
2023/06/15 12:07:01;;;;;;;;;11.33;11.33;;;;;33.77;23.27;101398.34;6338917;22;45486;-91
2023/06/15 12:09:26;;;;;;;;;12.00;11.00;;;;;33.76;23.35;101393.13;6338627;22;45259;-90
2023/06/15 12:11:52;;;;;;;;;13.25;11.75;;;;;33.87;23.88;101402.59;6310376;22;45394;-91
2023/06/15 12:14:20;;;;;;;;;11.00;10.25;;;;;33.97;23.09;101397.69;6330737;22;45539;-91
2023/06/15 12:16:51;;;;;;;;;12.50;12.00;;;;;34.07;23.17;101418.97;6332713;22;47311;-93
2023/06/15 12:19:17;;;;;;;;;11.75;11.75;;;;;34.10;23.05;101403.22;6308056;22;45231;-92
2023/06/15 12:21:43;;;;;;;;;14.50;13.75;;;;;34.19;22.53;101409.28;6334983;22;45658;-91
2023/06/15 12:24:14;;;;;;;;;11.67;11.67;;;;;34.22;23.10;101414.31;6335077;22;45463;-92
2023/06/15 12:26:40;;;;;;;;;17.00;16.25;;;;;34.32;22.75;101413.09;6306959;22;47022;-92
2023/06/15 12:29:16;;;;;;;;;15.25;14.75;;;;;34.27;22.80;101400.19;6333336;22;44704;-92
2023/06/15 12:31:42;;;;;;;;;12.67;12.67;;;;;34.06;21.51;101393.81;6334927;22;45269;-91
2023/06/15 12:34:08;;;;;;;;;21.25;20.75;;;;;33.98;22.59;101408.25;6333208;22;45243;-91
2023/06/15 12:36:37;;;;;;;;;12.75;12.25;;;;;33.99;22.71;101411.81;6335571;22;46213;-91
2023/06/15 12:39:13;;;;;;;;;17.75;17.25;;;;;34.02;22.74;101406.03;6333047;22;45386;-91
2023/06/15 12:41:41;;;;;;;;;13.50;13.50;;;;;34.06;22.58;101407.31;6335645;22;45288;-92
2023/06/15 12:44:06;;;;;;;;;14.50;14.50;;;;;34.02;22.45;101392.53;6335150;22;45634;-92
2023/06/15 12:46:35;;;;;;;;;12.00;12.00;;;;;34.06;22.56;101395.72;6305144;22;46852;-91
2023/06/15 12:49:01;;;;;;;;;12.75;12.75;;;;;34.04;22.44;101397.72;6305857;22;45282;-91
2023/06/15 12:51:26;;;;;;;;;17.50;16.25;;;;;33.95;22.91;101397.03;6307789;22;45314;-92
2023/06/15 12:53:52;;;;;;;;;15.50;14.00;;;;;34.04;22.61;101400.41;6332553;22;45258;-91
2023/06/15 12:56:17;;;;;;;;;15.00;15.00;;;;;34.11;22.59;101387.84;6306566;22;48090;-91
2023/06/15 12:58:43;;;;;;;;;16.75;16.75;;;;;34.16;22.37;101389.94;6307002;22;45265;-91
2023/06/15 13:01:08;;;;;;;;;14.00;14.00;;;;;34.19;22.09;101384.16;6334306;22;45190;-92
2023/06/15 13:03:33;;;;;;;;;14.75;13.25;;;;;34.25;22.54;101383.38;6306841;22;45214;-92
2023/06/15 13:05:59;;;;;;;;;14.75;14.75;;;;;34.36;22.41;101380.13;6305305;22;45599;-91
2023/06/15 13:08:24;;;;;;;;;10.00;10.00;;;;;34.47;22.14;101383.28;6331502;22;45325;-90
2023/06/15 13:10:49;;;;;;;;;13.75;13.75;;;;;34.56;22.42;101395.59;6333350;22;45231;-92
2023/06/15 13:13:15;;;;;;;;;14.25;13.25;;;;;34.60;22.48;101390.63;6306117;22;45286;-92
2023/06/15 13:15:41;;;;;;;;;15.50;15.50;;;;;34.68;21.97;101397.75;6306701;22;45413;-91
2023/06/15 13:18:07;;;;;;;;;12.00;12.00;;;;;34.70;21.71;101384.88;6334146;22;45784;-92
2023/06/15 13:20:32;;;;;;;;;15.50;14.00;;;;;34.74;21.53;101388.84;6332944;22;45394;-91
2023/06/15 13:22:57;;;;;;;;;12.00;12.00;;;;;34.76;21.90;101387.59;6306932;22;45331;-91
2023/06/15 13:25:23;;;;;;;;;16.00;14.75;;;;;34.80;21.70;101389.91;6333691;22;45627;-91
2023/06/15 13:27:48;;;;;;;;;12.75;12.75;;;;;34.77;22.05;101388.44;6305894;22;45310;-91
2023/06/15 13:30:16;;;;;;;;;15.75;13.75;;;;;34.80;22.00;101388.03;6306314;22;45281;-92
2023/06/15 13:32:44;;;;;;;;;16.25;14.75;;;;;34.84;21.49;101383.06;6332188;22;45573;-91
2023/06/15 13:35:10;;;;;;;;;15.75;13.75;;;;;34.75;21.37;101368.91;6265037;22;46374;-92
2023/06/15 13:43:21;;;;;;;;;13.00;12.75;;;;;34.52;22.05;101387.03;6305936;22;45276;-91
2023/06/15 13:45:47;;;;;;;;;12.00;12.00;;;;;34.42;21.86;101377.66;6278713;22;45818;-90
2023/06/15 13:48:12;;;;;;;;;16.25;15.00;;;;;34.24;21.75;101382.53;6277876;22;45314;-91
2023/06/15 13:50:38;;;;;;;;;16.00;14.50;;;;;34.14;21.66;101389.31;6276136;22;45194;-91
2023/06/15 13:53:03;;;;;;;;;15.25;14.00;;;;;33.98;21.94;101381.28;6277623;22;45242;-91
2023/06/15 13:55:28;;;;;;;;;13.25;12.00;;;;;33.76;22.44;101369.69;6279033;22;45668;-91
2023/06/15 13:57:55;;;;;;;;;11.00;11.00;;;;;33.65;22.29;101367.53;6278836;22;45274;-91
2023/06/15 14:00:20;;;;;;;;;13.25;13.25;;;;;33.48;22.50;101353.44;6278852;22;45337;-91
2023/06/15 14:02:46;;;;;;;;;16.00;14.75;;;;;33.51;22.54;101372.78;6277232;22;45503;-91